Marietta, North Carolina
Current Conditions -  °F | °C
As of 9:54 AM on Saturday 25 Oct 2014 (Local Time) from KLBT Reporting Station
Clear Clear  
Wind Chill: 58°   Ceiling: Unl
Heat Index: 58°   Visibility: 10mi
Dew Point: 45°   Wind: 0mph
Humidity: 62%   Direction: NA
Pressure: 30.01"   Gusts: NA
Location:  34.37°N, 79.12°W
Report Text: KLBT 251354Z AUTO 00000KT 10SM CLR 14/07 A3001 RMK AO2 SLP162 T01440072
Loading
Personal Weather Stations






























Interactive Weather Map
Tropical Storm Tracking
New forecast layout! Learn more

10-Day Weather Forecast

Advertisements
Track Severe Weather on mobile